sensor_id;sensor_type;location;lat;lon;timestamp;P1;durP1;ratioP1;P2;durP2;ratioP2
81231;SDS011;70703;55.652;37.710;2023-11-19T00:00:08;36.78;;;18.65;;
81231;SDS011;70703;55.652;37.710;2023-11-19T00:00:22;39.55;;;18.90;;
81231;SDS011;70703;55.652;37.710;2023-11-19T00:00:35;41.33;;;18.95;;
81231;SDS011;70703;55.652;37.710;2023-11-19T00:00:47;39.35;;;19.13;;
81231;SDS011;70703;55.652;37.710;2023-11-19T00:00:59;35.28;;;18.85;;
81231;SDS011;70703;55.652;37.710;2023-11-19T00:01:11;33.55;;;18.80;;
81231;SDS011;70703;55.652;37.710;2023-11-19T00:01:23;32.90;;;18.70;;
81231;SDS011;70703;55.652;37.710;2023-11-19T00:01:36;35.58;;;19.60;;
81231;SDS011;70703;55.652;37.710;2023-11-19T00:01:48;38.03;;;19.55;;
81231;SDS011;70703;55.652;37.710;2023-11-19T00:01:59;39.80;;;19.35;;
81231;SDS011;70703;55.652;37.710;2023-11-19T00:02:12;38.78;;;19.25;;
81231;SDS011;70703;55.652;37.710;2023-11-19T00:02:25;39.45;;;19.05;;
81231;SDS011;70703;55.652;37.710;2023-11-19T00:02:38;38.17;;;18.52;;
81231;SDS011;70703;55.652;37.710;2023-11-19T00:02:49;37.28;;;18.83;;
81231;SDS011;70703;55.652;37.710;2023-11-19T00:03:01;35.55;;;18.45;;
81231;SDS011;70703;55.652;37.710;2023-11-19T00:03:14;37.72;;;18.55;;
81231;SDS011;70703;55.652;37.710;2023-11-19T00:03:26;34.65;;;18.58;;
81231;SDS011;70703;55.652;37.710;2023-11-19T00:03:38;34.20;;;19.08;;
81231;SDS011;70703;55.652;37.710;2023-11-19T00:03:52;35.10;;;19.42;;
81231;SDS011;70703;55.652;37.710;2023-11-19T00:04:04;37.45;;;19.30;;
81231;SDS011;70703;55.652;37.710;2023-11-19T00:04:16;38.60;;;19.30;;
81231;SDS011;70703;55.652;37.710;2023-11-19T00:04:29;36.97;;;19.33;;
81231;SDS011;70703;55.652;37.710;2023-11-19T00:04:44;36.63;;;19.27;;
81231;SDS011;70703;55.652;37.710;2023-11-19T00:04:56;40.50;;;19.02;;
81231;SDS011;70703;55.652;37.710;2023-11-19T00:05:08;39.58;;;18.63;;
81231;SDS011;70703;55.652;37.710;2023-11-19T00:05:22;38.72;;;18.52;;
81231;SDS011;70703;55.652;37.710;2023-11-19T00:05:34;37.38;;;18.98;;
81231;SDS011;70703;55.652;37.710;2023-11-19T00:05:47;40.83;;;19.15;;
81231;SDS011;70703;55.652;37.710;2023-11-19T00:05:58;40.75;;;19.13;;
81231;SDS011;70703;55.652;37.710;2023-11-19T00:06:10;38.97;;;18.77;;
81231;SDS011;70703;55.652;37.710;2023-11-19T00:06:23;38.08;;;18.85;;
81231;SDS011;70703;55.652;37.710;2023-11-19T00:06:35;36.47;;;18.58;;
81231;SDS011;70703;55.652;37.710;2023-11-19T00:06:47;37.35;;;18.42;;
81231;SDS011;70703;55.652;37.710;2023-11-19T00:06:59;37.22;;;18.60;;
81231;SDS011;70703;55.652;37.710;2023-11-19T00:07:14;37.25;;;18.52;;
81231;SDS011;70703;55.652;37.710;2023-11-19T00:07:26;37.78;;;18.42;;
81231;SDS011;70703;55.652;37.710;2023-11-19T00:07:38;37.70;;;18.35;;
81231;SDS011;70703;55.652;37.710;2023-11-19T00:07:51;36.13;;;18.58;;
81231;SDS011;70703;55.652;37.710;2023-11-19T00:08:03;35.68;;;18.60;;
81231;SDS011;70703;55.652;37.710;2023-11-19T00:08:17;35.04;;;18.74;;
81231;SDS011;70703;55.652;37.710;2023-11-19T00:08:28;33.08;;;18.80;;
81231;SDS011;70703;55.652;37.710;2023-11-19T00:08:41;33.67;;;18.42;;
81231;SDS011;70703;55.652;37.710;2023-11-19T00:08:54;36.65;;;18.58;;
81231;SDS011;70703;55.652;37.710;2023-11-19T00:09:07;36.58;;;18.85;;
81231;SDS011;70703;55.652;37.710;2023-11-19T00:09:19;36.50;;;18.80;;
81231;SDS011;70703;55.652;37.710;2023-11-19T00:09:31;38.67;;;19.23;;
81231;SDS011;70703;55.652;37.710;2023-11-19T00:09:43;38.10;;;18.95;;
81231;SDS011;70703;55.652;37.710;2023-11-19T00:09:56;34.67;;;18.83;;
81231;SDS011;70703;55.652;37.710;2023-11-19T00:10:08;36.75;;;19.23;;
81231;SDS011;70703;55.652;37.710;2023-11-19T00:10:22;41.67;;;19.85;;
81231;SDS011;70703;55.652;37.710;2023-11-19T00:10:34;41.88;;;19.88;;
81231;SDS011;70703;55.652;37.710;2023-11-19T00:10:47;38.55;;;19.10;;
81231;SDS011;70703;55.652;37.710;2023-11-19T00:10:59;36.83;;;18.58;;
81231;SDS011;70703;55.652;37.710;2023-11-19T00:11:11;36.05;;;18.83;;
81231;SDS011;70703;55.652;37.710;2023-11-19T00:11:27;37.33;;;19.10;;
81231;SDS011;70703;55.652;37.710;2023-11-19T00:11:40;37.08;;;19.05;;
81231;SDS011;70703;55.652;37.710;2023-11-19T00:11:51;36.88;;;18.98;;
81231;SDS011;70703;55.652;37.710;2023-11-19T00:12:03;39.47;;;18.70;;
81231;SDS011;70703;55.652;37.710;2023-11-19T00:12:18;41.72;;;18.70;;
81231;SDS011;70703;55.652;37.710;2023-11-19T00:12:30;37.72;;;18.73;;
81231;SDS011;70703;55.652;37.710;2023-11-19T00:12:43;39.40;;;19.13;;
81231;SDS011;70703;55.652;37.710;2023-11-19T00:12:56;38.58;;;18.75;;
81231;SDS011;70703;55.652;37.710;2023-11-19T00:13:08;36.30;;;18.75;;
81231;SDS011;70703;55.652;37.710;2023-11-19T00:13:20;39.55;;;19.25;;
81231;SDS011;70703;55.652;37.710;2023-11-19T00:13:31;39.60;;;19.20;;
81231;SDS011;70703;55.652;37.710;2023-11-19T00:13:44;37.13;;;19.42;;
81231;SDS011;70703;55.652;37.710;2023-11-19T00:13:57;35.92;;;19.50;;
81231;SDS011;70703;55.652;37.710;2023-11-19T00:14:10;35.83;;;19.67;;
81231;SDS011;70703;55.652;37.710;2023-11-19T00:14:23;36.42;;;19.10;;
81231;SDS011;70703;55.652;37.710;2023-11-19T00:14:35;37.30;;;19.00;;
81231;SDS011;70703;55.652;37.710;2023-11-19T00:14:47;36.95;;;19.13;;
81231;SDS011;70703;55.652;37.710;2023-11-19T00:15:00;39.30;;;19.67;;
81231;SDS011;70703;55.652;37.710;2023-11-19T00:15:12;38.47;;;19.35;;
81231;SDS011;70703;55.652;37.710;2023-11-19T00:15:24;36.67;;;19.17;;
81231;SDS011;70703;55.652;37.710;2023-11-19T00:15:36;36.18;;;19.22;;
81231;SDS011;70703;55.652;37.710;2023-11-19T00:15:49;36.13;;;19.25;;
81231;SDS011;70703;55.652;37.710;2023-11-19T00:16:04;37.13;;;19.10;;
81231;SDS011;70703;55.652;37.710;2023-11-19T00:16:18;40.67;;;19.33;;
81231;SDS011;70703;55.652;37.710;2023-11-19T00:16:31;40.15;;;19.70;;
81231;SDS011;70703;55.652;37.710;2023-11-19T00:16:43;40.25;;;19.63;;
81231;SDS011;70703;55.652;37.710;2023-11-19T00:16:55;37.78;;;19.05;;
81231;SDS011;70703;55.652;37.710;2023-11-19T00:17:07;36.88;;;18.98;;
81231;SDS011;70703;55.652;37.710;2023-11-19T00:17:19;34.63;;;19.08;;
81231;SDS011;70703;55.652;37.710;2023-11-19T00:17:31;33.50;;;18.98;;
81231;SDS011;70703;55.652;37.710;2023-11-19T00:17:44;34.58;;;19.27;;
81231;SDS011;70703;55.652;37.710;2023-11-19T00:17:57;33.63;;;19.48;;
81231;SDS011;70703;55.652;37.710;2023-11-19T00:18:09;34.28;;;19.48;;
81231;SDS011;70703;55.652;37.710;2023-11-19T00:18:24;34.92;;;19.42;;
81231;SDS011;70703;55.652;37.710;2023-11-19T00:18:36;37.28;;;19.63;;
81231;SDS011;70703;55.652;37.710;2023-11-19T00:18:48;39.03;;;19.83;;
81231;SDS011;70703;55.652;37.710;2023-11-19T00:19:02;37.72;;;19.05;;
81231;SDS011;70703;55.652;37.710;2023-11-19T00:19:15;35.65;;;18.70;;
81231;SDS011;70703;55.652;37.710;2023-11-19T00:19:28;36.90;;;19.40;;
81231;SDS011;70703;55.652;37.710;2023-11-19T00:19:40;40.97;;;19.50;;
81231;SDS011;70703;55.652;37.710;2023-11-19T00:19:52;41.88;;;19.40;;
81231;SDS011;70703;55.652;37.710;2023-11-19T00:20:06;38.97;;;19.15;;
81231;SDS011;70703;55.652;37.710;2023-11-19T00:20:20;37.17;;;19.27;;
81231;SDS011;70703;55.652;37.710;2023-11-19T00:20:34;34.75;;;18.70;;
81231;SDS011;70703;55.652;37.710;2023-11-19T00:20:47;34.28;;;18.77;;
81231;SDS011;70703;55.652;37.710;2023-11-19T00:20:59;35.05;;;18.63;;
81231;SDS011;70703;55.652;37.710;2023-11-19T00:21:12;36.65;;;19.00;;
81231;SDS011;70703;55.652;37.710;2023-11-19T00:21:25;35.72;;;18.90;;
81231;SDS011;70703;55.652;37.710;2023-11-19T00:21:39;37.50;;;18.50;;
81231;SDS011;70703;55.652;37.710;2023-11-19T00:21:52;36.38;;;18.30;;
81231;SDS011;70703;55.652;37.710;2023-11-19T00:22:03;38.67;;;18.52;;
81231;SDS011;70703;55.652;37.710;2023-11-19T00:22:16;36.97;;;18.98;;
81231;SDS011;70703;55.652;37.710;2023-11-19T00:22:28;35.50;;;19.15;;
81231;SDS011;70703;55.652;37.710;2023-11-19T00:22:40;37.45;;;18.83;;
81231;SDS011;70703;55.652;37.710;2023-11-19T00:22:54;40.13;;;18.60;;
81231;SDS011;70703;55.652;37.710;2023-11-19T00:23:07;38.53;;;18.75;;
81231;SDS011;70703;55.652;37.710;2023-11-19T00:23:19;37.75;;;18.98;;
81231;SDS011;70703;55.652;37.710;2023-11-19T00:23:31;36.10;;;19.20;;
81231;SDS011;70703;55.652;37.710;2023-11-19T00:23:44;33.80;;;19.13;;
81231;SDS011;70703;55.652;37.710;2023-11-19T00:23:56;34.97;;;19.13;;
81231;SDS011;70703;55.652;37.710;2023-11-19T00:24:09;34.67;;;18.90;;
81231;SDS011;70703;55.652;37.710;2023-11-19T00:24:22;37.13;;;19.42;;
81231;SDS011;70703;55.652;37.710;2023-11-19T00:24:34;38.25;;;19.58;;
81231;SDS011;70703;55.652;37.710;2023-11-19T00:24:47;43.33;;;19.73;;
81231;SDS011;70703;55.652;37.710;2023-11-19T00:25:00;41.75;;;19.67;;
81231;SDS011;70703;55.652;37.710;2023-11-19T00:25:13;38.92;;;19.40;;
81231;SDS011;70703;55.652;37.710;2023-11-19T00:25:25;39.83;;;19.20;;
81231;SDS011;70703;55.652;37.710;2023-11-19T00:25:37;38.25;;;19.13;;
81231;SDS011;70703;55.652;37.710;2023-11-19T00:25:50;36.67;;;18.83;;
81231;SDS011;70703;55.652;37.710;2023-11-19T00:26:02;35.97;;;18.70;;
81231;SDS011;70703;55.652;37.710;2023-11-19T00:26:16;34.65;;;18.50;;
81231;SDS011;70703;55.652;37.710;2023-11-19T00:26:34;34.13;;;17.98;;
81231;SDS011;70703;55.652;37.710;2023-11-19T00:26:46;37.25;;;18.10;;
81231;SDS011;70703;55.652;37.710;2023-11-19T00:26:59;39.22;;;17.55;;
81231;SDS011;70703;55.652;37.710;2023-11-19T00:27:11;35.47;;;17.42;;
81231;SDS011;70703;55.652;37.710;2023-11-19T00:27:23;31.45;;;17.58;;
81231;SDS011;70703;55.652;37.710;2023-11-19T00:27:36;33.08;;;18.05;;
81231;SDS011;70703;55.652;37.710;2023-11-19T00:27:48;33.25;;;17.85;;
81231;SDS011;70703;55.652;37.710;2023-11-19T00:28:01;33.00;;;17.92;;
81231;SDS011;70703;55.652;37.710;2023-11-19T00:28:14;36.63;;;18.50;;
81231;SDS011;70703;55.652;37.710;2023-11-19T00:28:26;36.70;;;18.67;;
81231;SDS011;70703;55.652;37.710;2023-11-19T00:28:39;36.75;;;18.27;;
81231;SDS011;70703;55.652;37.710;2023-11-19T00:28:53;34.63;;;18.10;;
81231;SDS011;70703;55.652;37.710;2023-11-19T00:29:06;34.05;;;18.52;;
81231;SDS011;70703;55.652;37.710;2023-11-19T00:29:18;35.47;;;19.08;;
81231;SDS011;70703;55.652;37.710;2023-11-19T00:29:31;36.72;;;19.13;;
81231;SDS011;70703;55.652;37.710;2023-11-19T00:29:43;35.40;;;19.00;;
81231;SDS011;70703;55.652;37.710;2023-11-19T00:29:55;34.42;;;18.95;;
81231;SDS011;70703;55.652;37.710;2023-11-19T00:30:07;34.88;;;19.02;;
81231;SDS011;70703;55.652;37.710;2023-11-19T00:30:20;35.10;;;18.95;;
81231;SDS011;70703;55.652;37.710;2023-11-19T00:30:32;33.78;;;18.35;;
81231;SDS011;70703;55.652;37.710;2023-11-19T00:30:44;34.35;;;18.40;;
81231;SDS011;70703;55.652;37.710;2023-11-19T00:30:58;37.15;;;18.75;;
81231;SDS011;70703;55.652;37.710;2023-11-19T00:31:10;38.55;;;18.95;;
81231;SDS011;70703;55.652;37.710;2023-11-19T00:31:23;38.88;;;19.35;;
81231;SDS011;70703;55.652;37.710;2023-11-19T00:31:37;38.22;;;19.50;;
81231;SDS011;70703;55.652;37.710;2023-11-19T00:31:48;40.00;;;19.48;;
81231;SDS011;70703;55.652;37.710;2023-11-19T00:32:01;37.83;;;19.42;;
81231;SDS011;70703;55.652;37.710;2023-11-19T00:32:14;38.55;;;18.85;;
81231;SDS011;70703;55.652;37.710;2023-11-19T00:32:25;37.65;;;18.48;;
81231;SDS011;70703;55.652;37.710;2023-11-19T00:32:36;38.95;;;18.63;;
81231;SDS011;70703;55.652;37.710;2023-11-19T00:32:51;38.08;;;18.95;;
81231;SDS011;70703;55.652;37.710;2023-11-19T00:33:04;38.83;;;19.30;;
81231;SDS011;70703;55.652;37.710;2023-11-19T00:33:17;38.17;;;19.35;;
81231;SDS011;70703;55.652;37.710;2023-11-19T00:33:29;34.83;;;18.80;;
81231;SDS011;70703;55.652;37.710;2023-11-19T00:33:41;38.35;;;18.73;;
81231;SDS011;70703;55.652;37.710;2023-11-19T00:33:55;39.70;;;18.73;;
81231;SDS011;70703;55.652;37.710;2023-11-19T00:34:09;37.15;;;19.17;;
81231;SDS011;70703;55.652;37.710;2023-11-19T00:34:21;38.58;;;19.73;;
81231;SDS011;70703;55.652;37.710;2023-11-19T00:34:34;36.45;;;19.70;;
81231;SDS011;70703;55.652;37.710;2023-11-19T00:34:46;35.88;;;19.13;;
81231;SDS011;70703;55.652;37.710;2023-11-19T00:34:58;33.95;;;18.55;;
81231;SDS011;70703;55.652;37.710;2023-11-19T00:35:12;35.47;;;18.30;;
81231;SDS011;70703;55.652;37.710;2023-11-19T00:35:24;36.03;;;18.60;;
81231;SDS011;70703;55.652;37.710;2023-11-19T00:35:37;35.38;;;19.00;;
81231;SDS011;70703;55.652;37.710;2023-11-19T00:35:48;33.15;;;18.63;;
81231;SDS011;70703;55.652;37.710;2023-11-19T00:35:59;32.15;;;18.45;;
81231;SDS011;70703;55.652;37.710;2023-11-19T00:36:12;31.70;;;18.33;;
81231;SDS011;70703;55.652;37.710;2023-11-19T00:36:23;31.60;;;18.38;;
81231;SDS011;70703;55.652;37.710;2023-11-19T00:36:35;30.65;;;18.13;;
81231;SDS011;70703;55.652;37.710;2023-11-19T00:36:47;34.70;;;18.42;;
81231;SDS011;70703;55.652;37.710;2023-11-19T00:37:00;38.22;;;18.67;;
81231;SDS011;70703;55.652;37.710;2023-11-19T00:37:14;35.35;;;18.60;;
81231;SDS011;70703;55.652;37.710;2023-11-19T00:37:26;34.15;;;18.58;;
81231;SDS011;70703;55.652;37.710;2023-11-19T00:37:39;35.80;;;18.42;;
81231;SDS011;70703;55.652;37.710;2023-11-19T00:37:53;35.33;;;18.73;;
81231;SDS011;70703;55.652;37.710;2023-11-19T00:38:06;34.80;;;18.80;;
81231;SDS011;70703;55.652;37.710;2023-11-19T00:38:18;34.05;;;18.80;;
81231;SDS011;70703;55.652;37.710;2023-11-19T00:38:30;35.47;;;19.05;;
81231;SDS011;70703;55.652;37.710;2023-11-19T00:38:41;34.45;;;18.83;;
81231;SDS011;70703;55.652;37.710;2023-11-19T00:38:53;34.50;;;18.70;;
81231;SDS011;70703;55.652;37.710;2023-11-19T00:39:04;31.83;;;18.23;;
81231;SDS011;70703;55.652;37.710;2023-11-19T00:39:16;31.75;;;18.08;;
81231;SDS011;70703;55.652;37.710;2023-11-19T00:39:28;34.95;;;18.10;;
81231;SDS011;70703;55.652;37.710;2023-11-19T00:39:40;34.53;;;17.95;;
81231;SDS011;70703;55.652;37.710;2023-11-19T00:39:52;32.95;;;18.10;;
81231;SDS011;70703;55.652;37.710;2023-11-19T00:40:05;33.03;;;17.92;;
81231;SDS011;70703;55.652;37.710;2023-11-19T00:40:20;36.20;;;17.92;;
81231;SDS011;70703;55.652;37.710;2023-11-19T00:40:33;34.65;;;18.30;;
81231;SDS011;70703;55.652;37.710;2023-11-19T00:40:46;32.33;;;18.23;;
81231;SDS011;70703;55.652;37.710;2023-11-19T00:40:58;32.42;;;18.15;;
81231;SDS011;70703;55.652;37.710;2023-11-19T00:41:10;33.90;;;18.15;;
81231;SDS011;70703;55.652;37.710;2023-11-19T00:41:22;37.72;;;18.85;;
81231;SDS011;70703;55.652;37.710;2023-11-19T00:41:36;38.58;;;18.88;;
81231;SDS011;70703;55.652;37.710;2023-11-19T00:41:49;34.70;;;18.67;;
81231;SDS011;70703;55.652;37.710;2023-11-19T00:42:00;34.50;;;18.63;;
81231;SDS011;70703;55.652;37.710;2023-11-19T00:42:12;36.38;;;18.63;;
81231;SDS011;70703;55.652;37.710;2023-11-19T00:42:24;36.22;;;18.83;;
81231;SDS011;70703;55.652;37.710;2023-11-19T00:42:35;36.17;;;18.58;;
81231;SDS011;70703;55.652;37.710;2023-11-19T00:42:49;34.50;;;18.83;;
81231;SDS011;70703;55.652;37.710;2023-11-19T00:43:02;33.55;;;19.05;;
81231;SDS011;70703;55.652;37.710;2023-11-19T00:43:15;33.90;;;19.08;;
81231;SDS011;70703;55.652;37.710;2023-11-19T00:43:27;35.75;;;18.65;;
81231;SDS011;70703;55.652;37.710;2023-11-19T00:43:39;37.53;;;18.65;;
81231;SDS011;70703;55.652;37.710;2023-11-19T00:43:51;33.85;;;18.27;;
81231;SDS011;70703;55.652;37.710;2023-11-19T00:44:03;34.10;;;18.23;;
81231;SDS011;70703;55.652;37.710;2023-11-19T00:44:16;32.67;;;18.42;;
81231;SDS011;70703;55.652;37.710;2023-11-19T00:44:30;32.17;;;18.35;;
81231;SDS011;70703;55.652;37.710;2023-11-19T00:44:43;31.75;;;18.25;;
81231;SDS011;70703;55.652;37.710;2023-11-19T00:44:55;32.28;;;18.33;;
81231;SDS011;70703;55.652;37.710;2023-11-19T00:45:08;34.30;;;18.85;;
81231;SDS011;70703;55.652;37.710;2023-11-19T00:45:23;35.10;;;19.00;;
81231;SDS011;70703;55.652;37.710;2023-11-19T00:45:38;35.78;;;19.30;;
81231;SDS011;70703;55.652;37.710;2023-11-19T00:45:51;34.85;;;19.25;;
81231;SDS011;70703;55.652;37.710;2023-11-19T00:46:03;34.45;;;18.95;;
81231;SDS011;70703;55.652;37.710;2023-11-19T00:46:19;36.83;;;18.67;;
81231;SDS011;70703;55.652;37.710;2023-11-19T00:46:31;35.53;;;18.33;;
81231;SDS011;70703;55.652;37.710;2023-11-19T00:46:43;36.88;;;18.42;;
81231;SDS011;70703;55.652;37.710;2023-11-19T00:46:55;36.88;;;18.48;;
81231;SDS011;70703;55.652;37.710;2023-11-19T00:47:08;36.08;;;18.85;;
81231;SDS011;70703;55.652;37.710;2023-11-19T00:47:20;35.08;;;18.60;;
81231;SDS011;70703;55.652;37.710;2023-11-19T00:47:33;33.33;;;18.10;;
81231;SDS011;70703;55.652;37.710;2023-11-19T00:47:45;34.42;;;17.75;;
81231;SDS011;70703;55.652;37.710;2023-11-19T00:47:57;35.60;;;17.80;;
81231;SDS011;70703;55.652;37.710;2023-11-19T00:48:10;36.40;;;17.67;;
81231;SDS011;70703;55.652;37.710;2023-11-19T00:48:21;34.03;;;17.52;;
81231;SDS011;70703;55.652;37.710;2023-11-19T00:48:34;33.45;;;17.45;;
81231;SDS011;70703;55.652;37.710;2023-11-19T00:48:46;33.85;;;17.60;;
81231;SDS011;70703;55.652;37.710;2023-11-19T00:48:59;35.10;;;17.98;;
81231;SDS011;70703;55.652;37.710;2023-11-19T00:49:13;36.17;;;18.13;;
81231;SDS011;70703;55.652;37.710;2023-11-19T00:49:26;37.17;;;17.83;;
81231;SDS011;70703;55.652;37.710;2023-11-19T00:49:38;36.80;;;17.95;;
81231;SDS011;70703;55.652;37.710;2023-11-19T00:49:50;35.60;;;18.05;;
81231;SDS011;70703;55.652;37.710;2023-11-19T00:50:03;35.60;;;18.10;;
81231;SDS011;70703;55.652;37.710;2023-11-19T00:50:15;35.08;;;17.85;;
81231;SDS011;70703;55.652;37.710;2023-11-19T00:50:28;36.55;;;17.77;;
81231;SDS011;70703;55.652;37.710;2023-11-19T00:50:42;36.97;;;17.77;;
81231;SDS011;70703;55.652;37.710;2023-11-19T00:50:55;37.00;;;18.10;;
81231;SDS011;70703;55.652;37.710;2023-11-19T00:51:08;34.58;;;17.77;;
81231;SDS011;70703;55.652;37.710;2023-11-19T00:51:19;33.72;;;17.67;;
81231;SDS011;70703;55.652;37.710;2023-11-19T00:51:31;32.53;;;17.45;;
81231;SDS011;70703;55.652;37.710;2023-11-19T00:51:42;32.33;;;17.20;;
81231;SDS011;70703;55.652;37.710;2023-11-19T00:51:56;31.55;;;17.05;;
81231;SDS011;70703;55.652;37.710;2023-11-19T00:52:11;38.78;;;17.85;;
81231;SDS011;70703;55.652;37.710;2023-11-19T00:52:24;44.00;;;18.20;;
81231;SDS011;70703;55.652;37.710;2023-11-19T00:52:36;38.55;;;18.00;;
81231;SDS011;70703;55.652;37.710;2023-11-19T00:52:48;36.47;;;18.13;;
81231;SDS011;70703;55.652;37.710;2023-11-19T00:53:02;35.58;;;18.10;;
81231;SDS011;70703;55.652;37.710;2023-11-19T00:53:14;36.03;;;18.05;;
81231;SDS011;70703;55.652;37.710;2023-11-19T00:53:26;32.85;;;17.33;;
81231;SDS011;70703;55.652;37.710;2023-11-19T00:53:37;32.63;;;17.38;;
81231;SDS011;70703;55.652;37.710;2023-11-19T00:53:50;32.22;;;17.70;;
81231;SDS011;70703;55.652;37.710;2023-11-19T00:54:03;32.20;;;17.80;;
81231;SDS011;70703;55.652;37.710;2023-11-19T00:54:16;31.65;;;17.75;;
81231;SDS011;70703;55.652;37.710;2023-11-19T00:54:27;32.70;;;17.45;;
81231;SDS011;70703;55.652;37.710;2023-11-19T00:54:40;30.05;;;17.30;;
81231;SDS011;70703;55.652;37.710;2023-11-19T00:54:51;29.42;;;17.00;;
81231;SDS011;70703;55.652;37.710;2023-11-19T00:55:03;32.65;;;17.48;;
81231;SDS011;70703;55.652;37.710;2023-11-19T00:55:17;35.15;;;17.58;;
81231;SDS011;70703;55.652;37.710;2023-11-19T00:55:29;31.85;;;17.35;;
81231;SDS011;70703;55.652;37.710;2023-11-19T00:55:41;31.33;;;16.85;;
81231;SDS011;70703;55.652;37.710;2023-11-19T00:55:54;32.50;;;17.05;;
81231;SDS011;70703;55.652;37.710;2023-11-19T00:56:07;33.83;;;17.27;;
81231;SDS011;70703;55.652;37.710;2023-11-19T00:56:23;30.48;;;16.80;;
81231;SDS011;70703;55.652;37.710;2023-11-19T00:56:35;29.73;;;16.35;;
81231;SDS011;70703;55.652;37.710;2023-11-19T00:56:48;30.77;;;16.63;;
81231;SDS011;70703;55.652;37.710;2023-11-19T00:56:59;30.17;;;16.67;;
81231;SDS011;70703;55.652;37.710;2023-11-19T00:57:12;29.00;;;16.83;;
81231;SDS011;70703;55.652;37.710;2023-11-19T00:57:24;30.30;;;16.90;;
81231;SDS011;70703;55.652;37.710;2023-11-19T00:57:38;31.10;;;16.60;;
81231;SDS011;70703;55.652;37.710;2023-11-19T00:57:49;31.42;;;16.67;;
81231;SDS011;70703;55.652;37.710;2023-11-19T00:58:03;30.33;;;16.75;;
81231;SDS011;70703;55.652;37.710;2023-11-19T00:58:14;32.70;;;17.00;;
81231;SDS011;70703;55.652;37.710;2023-11-19T00:58:28;32.30;;;17.27;;
81231;SDS011;70703;55.652;37.710;2023-11-19T00:58:40;29.80;;;16.70;;
81231;SDS011;70703;55.652;37.710;2023-11-19T00:58:52;29.58;;;16.90;;
81231;SDS011;70703;55.652;37.710;2023-11-19T00:59:04;30.45;;;16.63;;
81231;SDS011;70703;55.652;37.710;2023-11-19T00:59:16;31.88;;;16.77;;
81231;SDS011;70703;55.652;37.710;2023-11-19T00:59:28;32.53;;;16.80;;
81231;SDS011;70703;55.652;37.710;2023-11-19T00:59:41;35.08;;;16.90;;
81231;SDS011;70703;55.652;37.710;2023-11-19T00:59:54;33.67;;;16.67;;
81231;SDS011;70703;55.652;37.710;2023-11-19T01:00:08;29.05;;;16.50;;
81231;SDS011;70703;55.652;37.710;2023-11-19T01:00:29;29.70;;;16.65;;
81231;SDS011;70703;55.652;37.710;2023-11-19T01:00:43;29.20;;;16.63;;
81231;SDS011;70703;55.652;37.710;2023-11-19T01:00:55;30.83;;;16.70;;
81231;SDS011;70703;55.652;37.710;2023-11-19T01:01:08;31.85;;;17.13;;
81231;SDS011;70703;55.652;37.710;2023-11-19T01:01:21;30.38;;;16.67;;
81231;SDS011;70703;55.652;37.710;2023-11-19T01:01:33;31.30;;;16.70;;
81231;SDS011;70703;55.652;37.710;2023-11-19T01:01:46;28.63;;;16.65;;
81231;SDS011;70703;55.652;37.710;2023-11-19T01:01:59;31.13;;;16.65;;
81231;SDS011;70703;55.652;37.710;2023-11-19T01:02:13;33.53;;;17.05;;
81231;SDS011;70703;55.652;37.710;2023-11-19T01:02:27;31.02;;;16.67;;
81231;SDS011;70703;55.652;37.710;2023-11-19T01:02:40;29.83;;;16.10;;
81231;SDS011;70703;55.652;37.710;2023-11-19T01:02:53;31.00;;;16.45;;
81231;SDS011;70703;55.652;37.710;2023-11-19T01:03:04;29.77;;;16.55;;
81231;SDS011;70703;55.652;37.710;2023-11-19T01:03:18;29.92;;;16.50;;
81231;SDS011;70703;55.652;37.710;2023-11-19T01:03:30;30.98;;;16.70;;
81231;SDS011;70703;55.652;37.710;2023-11-19T01:03:43;28.52;;;16.33;;
81231;SDS011;70703;55.652;37.710;2023-11-19T01:03:55;29.75;;;16.00;;
81231;SDS011;70703;55.652;37.710;2023-11-19T01:04:08;29.63;;;15.65;;
81231;SDS011;70703;55.652;37.710;2023-11-19T01:04:22;30.33;;;16.17;;
81231;SDS011;70703;55.652;37.710;2023-11-19T01:04:35;30.98;;;16.65;;
81231;SDS011;70703;55.652;37.710;2023-11-19T01:04:47;29.50;;;16.63;;
81231;SDS011;70703;55.652;37.710;2023-11-19T01:04:59;30.52;;;16.50;;
81231;SDS011;70703;55.652;37.710;2023-11-19T01:05:12;30.88;;;16.38;;
81231;SDS011;70703;55.652;37.710;2023-11-19T01:05:25;33.00;;;16.35;;
81231;SDS011;70703;55.652;37.710;2023-11-19T01:05:40;31.27;;;16.92;;
81231;SDS011;70703;55.652;37.710;2023-11-19T01:05:52;27.90;;;16.65;;
81231;SDS011;70703;55.652;37.710;2023-11-19T01:06:07;28.25;;;16.42;;
81231;SDS011;70703;55.652;37.710;2023-11-19T01:06:26;30.15;;;16.52;;
81231;SDS011;70703;55.652;37.710;2023-11-19T01:06:39;31.50;;;16.83;;
81231;SDS011;70703;55.652;37.710;2023-11-19T01:06:53;31.45;;;16.70;;
81231;SDS011;70703;55.652;37.710;2023-11-19T01:07:04;31.73;;;16.80;;
81231;SDS011;70703;55.652;37.710;2023-11-19T01:07:17;30.55;;;16.77;;
81231;SDS011;70703;55.652;37.710;2023-11-19T01:07:29;30.88;;;17.10;;
81231;SDS011;70703;55.652;37.710;2023-11-19T01:07:41;30.08;;;17.45;;
81231;SDS011;70703;55.652;37.710;2023-11-19T01:07:53;29.48;;;17.67;;
81231;SDS011;70703;55.652;37.710;2023-11-19T01:08:05;29.55;;;17.33;;
81231;SDS011;70703;55.652;37.710;2023-11-19T01:08:18;31.38;;;16.85;;
81231;SDS011;70703;55.652;37.710;2023-11-19T01:08:30;30.33;;;16.88;;
81231;SDS011;70703;55.652;37.710;2023-11-19T01:08:42;32.13;;;16.95;;
81231;SDS011;70703;55.652;37.710;2023-11-19T01:08:55;34.35;;;16.75;;
81231;SDS011;70703;55.652;37.710;2023-11-19T01:09:09;35.25;;;16.98;;
81231;SDS011;70703;55.652;37.710;2023-11-19T01:09:21;33.33;;;17.08;;
81231;SDS011;70703;55.652;37.710;2023-11-19T01:09:32;33.17;;;17.23;;
81231;SDS011;70703;55.652;37.710;2023-11-19T01:09:45;30.77;;;16.65;;
81231;SDS011;70703;55.652;37.710;2023-11-19T01:09:59;29.60;;;16.40;;
81231;SDS011;70703;55.652;37.710;2023-11-19T01:10:12;32.28;;;16.77;;
81231;SDS011;70703;55.652;37.710;2023-11-19T01:10:26;32.80;;;17.05;;
81231;SDS011;70703;55.652;37.710;2023-11-19T01:10:39;31.52;;;16.85;;
81231;SDS011;70703;55.652;37.710;2023-11-19T01:10:52;32.85;;;16.55;;
81231;SDS011;70703;55.652;37.710;2023-11-19T01:11:05;31.65;;;15.93;;
81231;SDS011;70703;55.652;37.710;2023-11-19T01:11:20;28.95;;;15.73;;
81231;SDS011;70703;55.652;37.710;2023-11-19T01:11:32;28.52;;;15.88;;
81231;SDS011;70703;55.652;37.710;2023-11-19T01:11:45;30.38;;;16.10;;
81231;SDS011;70703;55.652;37.710;2023-11-19T01:11:56;32.17;;;16.67;;
81231;SDS011;70703;55.652;37.710;2023-11-19T01:12:08;31.73;;;16.92;;
81231;SDS011;70703;55.652;37.710;2023-11-19T01:12:21;31.27;;;16.92;;
81231;SDS011;70703;55.652;37.710;2023-11-19T01:12:33;31.77;;;16.83;;
81231;SDS011;70703;55.652;37.710;2023-11-19T01:12:44;30.55;;;16.63;;
81231;SDS011;70703;55.652;37.710;2023-11-19T01:12:56;31.20;;;16.88;;
81231;SDS011;70703;55.652;37.710;2023-11-19T01:13:09;29.65;;;17.10;;